Terminal Aerodrome Forecast
Issued by NWS Sterling, VA

Current Version | Previous Version | Graphics & Text | Print | Product List | Glossary On
Versions: 1 2 3 4 5 6 7 8 9 10 11 12 13 14 15 16
000
FTUS41 KLWX 311736
TAFMRB
TAF
KMRB 311736Z 3118/0118 VRB03KT P6SM VCTS SCT050CB BKN090
     FM312100 25005KT P6SM SCT050 BKN100
     FM010100 20003KT P6SM SCT100
     FM010900 00000KT 3SM BR FEW250
     FM011200 00000KT 5SM BR FEW250
     FM011300 00000KT P6SM FEW250=

USA.gov is the U.S. government's official web portal to all federal, state and local government web resources and services.